createdAt,value
2018-09-09T00:00:26.981Z,68.12
2018-09-09T00:02:55.402Z,67.85
2018-09-09T00:05:23.839Z,67.58
2018-09-09T00:07:52.235Z,67.81
2018-09-09T00:10:20.630Z,67.57
2018-09-09T00:12:49.175Z,67.32
2018-09-09T00:15:17.555Z,67.54
2018-09-09T00:17:45.911Z,67.69
2018-09-09T00:20:14.323Z,67.75
2018-09-09T00:22:42.683Z,68.06
2018-09-09T00:25:11.170Z,68.39
2018-09-09T00:27:39.585Z,68.10
2018-09-09T00:30:08.255Z,68.73
2018-09-09T00:32:36.811Z,68.62
2018-09-09T00:35:05.191Z,68.89
2018-09-09T00:37:33.535Z,68.63
2018-09-09T00:40:02.144Z,68.97
2018-09-09T00:42:30.459Z,68.85
2018-09-09T00:44:58.829Z,68.44
2018-09-09T00:47:27.234Z,68.32
2018-09-09T00:51:00.528Z,68.20
2018-09-09T00:53:34.251Z,67.96
2018-09-09T00:56:02.691Z,68.32
2018-09-09T00:58:31.015Z,68.29
2018-09-09T01:01:04.744Z,68.17
2018-09-09T01:03:33.067Z,67.94
2018-09-09T01:06:01.524Z,67.97
2018-09-09T01:08:29.936Z,68.10
2018-09-09T01:10:58.259Z,67.65
2018-09-09T01:13:26.651Z,67.65
2018-09-09T01:15:55.090Z,67.96
2018-09-09T01:18:23.512Z,67.66
2018-09-09T01:20:51.856Z,68.05
2018-09-09T01:23:20.278Z,67.78
2018-09-09T01:25:48.587Z,67.88
2018-09-09T01:28:16.943Z,68.02
2018-09-09T01:30:45.483Z,68.37
2018-09-09T01:33:13.910Z,68.14
2018-09-09T01:35:42.351Z,68.18
2018-09-09T01:38:10.731Z,68.02
2018-09-09T01:40:39.055Z,67.80
2018-09-09T01:43:07.659Z,67.99
2018-09-09T01:45:36.115Z,68.14
2018-09-09T01:48:04.726Z,67.95
2018-09-09T01:50:33.141Z,67.60
2018-09-09T01:53:01.929Z,67.94
2018-09-09T01:55:30.294Z,67.70
2018-09-09T01:57:58.617Z,67.81
2018-09-09T02:00:26.983Z,67.63
2018-09-09T02:02:55.340Z,67.42
2018-09-09T02:05:23.662Z,67.41
2018-09-09T02:07:52.120Z,67.44
2018-09-09T02:10:20.468Z,68.02
2018-09-09T02:12:48.791Z,67.80
2018-09-09T02:15:17.281Z,67.80
2018-09-09T02:17:45.707Z,67.98
2018-09-09T02:20:14.023Z,68.34
2018-09-09T02:22:42.409Z,67.81
2018-09-09T02:25:10.847Z,67.51
2018-09-09T02:27:39.191Z,67.75
2018-09-09T02:30:07.799Z,67.68
2018-09-09T02:32:36.396Z,68.21
2018-09-09T02:35:05.604Z,68.04
2018-09-09T02:37:33.993Z,67.84
2018-09-09T02:40:02.427Z,67.82
2018-09-09T02:42:30.863Z,67.51
2018-09-09T02:44:59.260Z,67.33
2018-09-09T02:47:27.691Z,67.29
2018-09-09T02:49:56.016Z,66.90
2018-09-09T02:52:24.635Z,67.00
2018-09-09T02:54:52.963Z,67.35
2018-09-09T02:57:21.275Z,67.22
2018-09-09T02:59:49.839Z,67.58
2018-09-09T03:02:18.156Z,67.15
2018-09-09T03:04:46.544Z,66.88
2018-09-09T03:07:15.113Z,67.10
2018-09-09T03:09:43.496Z,66.75
2018-09-09T03:12:11.860Z,66.79
2018-09-09T03:14:40.235Z,67.10
2018-09-09T03:17:08.625Z,67.14
2018-09-09T03:19:36.949Z,67.25
2018-09-09T03:22:05.320Z,66.91
2018-09-09T03:24:33.640Z,66.93
2018-09-09T03:27:01.966Z,66.92
2018-09-09T03:29:30.337Z,66.99
2018-09-09T03:31:58.712Z,66.98
2018-09-09T03:34:27.297Z,66.80
2018-09-09T03:36:55.715Z,66.72
2018-09-09T03:39:24.217Z,66.72
2018-09-09T03:41:52.631Z,67.08
2018-09-09T03:44:21.047Z,66.73
2018-09-09T03:46:49.381Z,66.70
2018-09-09T03:49:17.846Z,66.61
2018-09-09T03:51:46.281Z,66.91
2018-09-09T03:54:14.619Z,66.59
2018-09-09T03:56:42.996Z,66.99
2018-09-09T03:59:11.575Z,67.37
2018-09-09T04:01:39.891Z,67.32
2018-09-09T04:04:08.847Z,67.25
2018-09-09T04:06:37.534Z,67.84
2018-09-09T04:09:07.479Z,67.30
2018-09-09T04:11:35.829Z,67.92
2018-09-09T04:14:04.248Z,67.50
2018-09-09T04:16:32.567Z,67.30
2018-09-09T04:19:00.999Z,67.69
2018-09-09T04:21:29.542Z,67.40
2018-09-09T04:23:57.879Z,67.89
2018-09-09T04:26:26.305Z,67.59
2018-09-09T04:28:54.722Z,66.99
2018-09-09T04:31:23.152Z,67.39
2018-09-09T04:33:51.631Z,67.29
2018-09-09T04:36:20.152Z,67.41
2018-09-09T04:38:48.611Z,67.53
2018-09-09T04:41:16.952Z,67.50
2018-09-09T04:43:45.406Z,67.67
2018-09-09T04:46:13.783Z,67.95
2018-09-09T04:48:42.128Z,67.91
2018-09-09T04:51:10.503Z,67.76
2018-09-09T04:53:38.816Z,67.80
2018-09-09T04:56:07.376Z,68.12
2018-09-09T04:58:35.751Z,67.67
2018-09-09T05:01:04.115Z,67.27
2018-09-09T05:03:32.435Z,67.74
2018-09-09T05:06:01.084Z,67.56
2018-09-09T05:08:29.467Z,67.43
2018-09-09T05:10:57.816Z,67.76
2018-09-09T05:13:26.179Z,67.48
2018-09-09T05:15:54.591Z,67.18
2018-09-09T05:18:22.973Z,67.05
2018-09-09T05:20:51.391Z,66.96
2018-09-09T05:23:19.735Z,67.27
2018-09-09T05:25:48.107Z,67.90
2018-09-09T05:28:16.683Z,68.53
2018-09-09T05:30:45.081Z,68.17
2018-09-09T05:33:13.408Z,68.07
2018-09-09T05:35:41.809Z,67.71
2018-09-09T05:38:10.454Z,67.88
2018-09-09T05:40:38.903Z,68.20
2018-09-09T05:43:07.470Z,68.40
2018-09-09T05:45:35.852Z,69.41
2018-09-09T05:48:04.207Z,69.61
2018-09-09T05:50:33.573Z,69.84
2018-09-09T05:53:02.135Z,70.21
2018-09-09T05:55:30.503Z,70.31
2018-09-09T05:57:58.903Z,69.98
2018-09-09T06:00:27.235Z,69.95
2018-09-09T06:02:55.657Z,70.34
2018-09-09T06:05:24.047Z,70.01
2018-09-09T06:07:52.379Z,69.92
2018-09-09T06:10:20.722Z,70.21
2018-09-09T06:12:49.176Z,70.27
2018-09-09T06:15:17.611Z,70.41
2018-09-09T06:17:46.004Z,70.11
2018-09-09T06:20:14.507Z,70.25
2018-09-09T06:22:42.993Z,70.06
2018-09-09T06:25:11.311Z,70.26
2018-09-09T06:27:39.811Z,69.84
2018-09-09T06:30:08.211Z,70.07
2018-09-09T06:32:36.641Z,70.61
2018-09-09T06:35:05.296Z,70.48
2018-09-09T06:37:33.851Z,70.69
2018-09-09T06:40:02.333Z,70.26
2018-09-09T06:42:30.769Z,70.44
2018-09-09T06:44:59.105Z,70.26
2018-09-09T06:47:27.459Z,70.78
2018-09-09T06:49:55.977Z,70.41
2018-09-09T06:52:24.485Z,70.31
2018-09-09T06:54:52.964Z,70.46
2018-09-09T06:57:21.323Z,70.30
2018-09-09T06:59:49.668Z,70.60
2018-09-09T07:02:18.179Z,70.27
2018-09-09T07:04:46.513Z,70.17
2018-09-09T07:07:14.852Z,70.38
2018-09-09T07:09:43.191Z,70.05
2018-09-09T07:12:11.651Z,70.28
2018-09-09T07:14:39.996Z,69.66
2018-09-09T07:17:08.624Z,70.06
2018-09-09T07:19:37.199Z,69.54
2018-09-09T07:22:05.651Z,69.92
2018-09-09T07:24:34.165Z,69.41
2018-09-09T07:27:02.677Z,69.89
2018-09-09T07:29:31.091Z,69.78
2018-09-09T07:31:59.435Z,69.68
2018-09-09T07:34:27.988Z,69.57
2018-09-09T07:36:56.371Z,69.57
2018-09-09T07:39:24.888Z,69.45
2018-09-09T07:41:53.446Z,69.78
2018-09-09T07:44:22.306Z,69.12
2018-09-09T07:46:50.724Z,68.98
2018-09-09T07:49:19.154Z,68.96
2018-09-09T07:51:47.711Z,68.64
2018-09-09T07:54:16.119Z,68.16
2018-09-09T07:56:44.536Z,67.73
2018-09-09T07:59:13.060Z,67.08
2018-09-09T08:01:41.576Z,67.28
2018-09-09T08:04:10.136Z,67.11
2018-09-09T08:06:38.476Z,66.90
2018-09-09T08:09:09.324Z,66.85
2018-09-09T08:11:38.848Z,66.34
2018-09-09T08:14:08.863Z,66.37
2018-09-09T08:16:37.224Z,66.96
2018-09-09T08:19:05.932Z,66.64
2018-09-09T08:21:34.864Z,66.12
2018-09-09T08:24:03.463Z,66.20
2018-09-09T08:26:31.924Z,66.34
2018-09-09T08:29:00.451Z,66.25
2018-09-09T08:31:28.842Z,65.76
2018-09-09T08:33:57.317Z,66.03
2018-09-09T08:36:25.803Z,65.79
2018-09-09T08:38:54.286Z,65.75
2018-09-09T08:41:22.744Z,65.37
2018-09-09T08:43:51.147Z,64.54
2018-09-09T08:46:19.603Z,64.36
2018-09-09T08:48:48.187Z,64.30
2018-09-09T08:51:16.507Z,64.26
2018-09-09T08:53:44.911Z,64.38
2018-09-09T08:56:13.303Z,64.35
2018-09-09T08:58:41.767Z,64.12
2018-09-09T09:01:10.119Z,63.33
2018-09-09T09:03:38.629Z,63.77
2018-09-09T09:06:07.107Z,63.58
2018-09-09T09:08:35.468Z,63.16
2018-09-09T09:11:03.949Z,63.27
2018-09-09T09:13:32.283Z,63.01
2018-09-09T09:16:00.747Z,62.71
2018-09-09T09:18:29.120Z,62.31
2018-09-09T09:20:57.500Z,62.79
2018-09-09T09:23:25.973Z,62.71
2018-09-09T09:25:55.057Z,62.25
2018-09-09T09:28:24.107Z,61.81
2018-09-09T09:30:53.403Z,61.93
2018-09-09T09:33:22.022Z,61.10
2018-09-09T09:35:51.691Z,60.86
2018-09-09T09:38:21.398Z,61.30
2018-09-09T09:40:50.327Z,61.82
2018-09-09T09:43:25.473Z,61.76
2018-09-09T09:45:54.151Z,61.29
2018-09-09T09:48:22.500Z,61.16
2018-09-09T09:50:50.908Z,61.65
2018-09-09T09:53:19.461Z,61.95
2018-09-09T09:55:47.772Z,62.19
2018-09-09T09:58:16.151Z,62.29
2018-09-09T10:00:49.980Z,61.64
2018-09-09T10:03:18.437Z,61.09
2018-09-09T10:05:46.854Z,61.36
2018-09-09T10:08:15.486Z,60.35
2018-09-09T10:10:43.876Z,60.69
2018-09-09T10:13:12.269Z,60.96
2018-09-09T10:15:40.682Z,60.25
2018-09-09T10:18:09.136Z,60.29
2018-09-09T10:20:37.507Z,59.55
2018-09-09T10:23:06.057Z,58.82
2018-09-09T10:25:34.450Z,58.57
2018-09-09T10:28:02.953Z,58.09
2018-09-09T10:30:31.430Z,57.45
2018-09-09T10:32:59.832Z,57.12
2018-09-09T10:35:28.180Z,56.56
2018-09-09T10:37:56.593Z,56.55
2018-09-09T10:40:25.060Z,55.60
2018-09-09T10:42:53.481Z,54.83
2018-09-09T10:45:21.961Z,55.50
2018-09-09T10:47:50.324Z,55.46
2018-09-09T10:50:18.823Z,55.54
2018-09-09T10:52:47.435Z,55.83
2018-09-09T10:55:16.604Z,56.02
2018-09-09T10:57:45.183Z,55.58
2018-09-09T11:00:13.664Z,55.52
2018-09-09T11:02:42.156Z,54.61
2018-09-09T11:05:10.517Z,53.83
2018-09-09T11:07:38.991Z,52.76
2018-09-09T11:10:07.383Z,53.03
2018-09-09T11:12:35.890Z,52.30
2018-09-09T11:15:04.447Z,53.27
2018-09-09T11:17:33.811Z,53.15
2018-09-09T11:20:02.195Z,52.76
2018-09-09T11:22:30.575Z,53.55
2018-09-09T11:24:59.895Z,53.23
2018-09-09T11:27:28.335Z,53.77
2018-09-09T11:29:56.782Z,53.87
2018-09-09T11:32:25.120Z,53.57
2018-09-09T11:34:53.521Z,53.39
2018-09-09T11:37:22.001Z,53.83
2018-09-09T11:39:50.436Z,52.33
2018-09-09T11:42:18.773Z,51.22
2018-09-09T11:44:47.292Z,51.64
2018-09-09T11:47:15.656Z,51.82
2018-09-09T11:49:44.100Z,51.85
2018-09-09T11:52:12.620Z,51.83
2018-09-09T11:54:41.079Z,50.86
2018-09-09T11:57:09.538Z,49.52
2018-09-09T11:59:38.142Z,50.18
2018-09-09T12:02:06.707Z,50.14
2018-09-09T12:04:35.027Z,49.94
2018-09-09T12:07:03.672Z,48.57
2018-09-09T12:09:32.256Z,48.03
2018-09-09T12:12:00.876Z,48.15
2018-09-09T12:14:29.314Z,47.10
2018-09-09T12:16:57.805Z,47.44
2018-09-09T12:19:26.177Z,48.23
2018-09-09T12:21:54.719Z,48.75
2018-09-09T12:24:23.231Z,48.79
2018-09-09T12:26:52.595Z,48.16
2018-09-09T12:29:21.304Z,48.31
2018-09-09T12:31:49.717Z,48.27
2018-09-09T12:34:18.190Z,48.31
2018-09-09T12:36:46.656Z,48.11
2018-09-09T12:39:15.080Z,48.61
2018-09-09T12:41:43.460Z,46.80
2018-09-09T12:44:17.268Z,46.52
2018-09-09T12:46:51.049Z,47.15
2018-09-09T12:49:19.566Z,45.34
2018-09-09T12:51:48.002Z,45.56
2018-09-09T12:54:16.357Z,45.98
2018-09-09T12:56:44.918Z,46.76
2018-09-09T12:59:13.240Z,44.88
2018-09-09T13:01:41.648Z,45.12
2018-09-09T13:04:10.200Z,45.03
2018-09-09T13:06:38.640Z,44.74
2018-09-09T13:09:08.676Z,44.93
2018-09-09T13:11:37.215Z,44.20
2018-09-09T13:14:05.602Z,44.42
2018-09-09T13:16:33.971Z,44.70
2018-09-09T13:19:02.655Z,44.59
2018-09-09T13:21:31.060Z,45.31
2018-09-09T13:23:59.663Z,44.33
2018-09-09T13:26:28.213Z,43.92
2018-09-09T13:28:56.663Z,44.76
2018-09-09T13:31:25.057Z,44.92
2018-09-09T13:33:53.502Z,44.90
2018-09-09T13:36:21.953Z,43.46
2018-09-09T13:38:50.564Z,43.60
2018-09-09T13:41:19.129Z,42.91
2018-09-09T13:43:47.601Z,43.52
2018-09-09T13:46:16.129Z,43.50
2018-09-09T13:48:44.560Z,44.02
2018-09-09T13:51:12.943Z,43.41
2018-09-09T13:53:41.418Z,43.71
2018-09-09T13:56:10.016Z,42.25
2018-09-09T13:58:38.353Z,42.92
2018-09-09T14:01:06.312Z,43.87
2018-09-09T14:03:35.091Z,43.09
2018-09-09T14:06:03.503Z,42.58
2018-09-09T14:08:31.838Z,43.19
2018-09-09T14:11:00.302Z,42.83
2018-09-09T14:13:28.723Z,42.32
2018-09-09T14:15:57.109Z,42.42
2018-09-09T14:18:26.544Z,42.07
2018-09-09T14:20:54.895Z,42.34
2018-09-09T14:23:23.259Z,42.69
2018-09-09T14:25:51.623Z,42.99
2018-09-09T14:28:20.019Z,42.90
2018-09-09T14:30:48.361Z,42.35
2018-09-09T14:33:16.781Z,43.80
2018-09-09T14:35:45.115Z,42.88
2018-09-09T14:38:13.535Z,43.13
2018-09-09T14:40:41.911Z,43.85
2018-09-09T14:43:10.362Z,44.25
2018-09-09T14:45:38.981Z,42.95
2018-09-09T14:48:07.551Z,41.95
2018-09-09T14:50:35.913Z,42.52
2018-09-09T14:53:04.392Z,42.48
2018-09-09T14:55:32.731Z,43.33
2018-09-09T14:58:01.188Z,43.54
2018-09-09T15:00:29.603Z,43.85
2018-09-09T15:02:58.200Z,43.20
2018-09-09T15:05:26.635Z,43.09
2018-09-09T15:07:55.253Z,43.66
2018-09-09T15:10:23.877Z,42.83
2018-09-09T15:12:52.211Z,41.99
2018-09-09T15:15:20.553Z,42.41
2018-09-09T15:17:48.944Z,42.81
2018-09-09T15:20:17.387Z,41.56
2018-09-09T15:22:45.802Z,41.67
2018-09-09T15:25:14.170Z,41.74
2018-09-09T15:27:42.735Z,42.89
2018-09-09T15:30:12.031Z,42.08
2018-09-09T15:32:40.385Z,41.72
2018-09-09T15:35:08.853Z,42.29
2018-09-09T15:37:37.336Z,41.54
2018-09-09T15:40:05.874Z,42.13
2018-09-09T15:42:34.231Z,41.88
2018-09-09T15:45:02.614Z,42.06
2018-09-09T15:47:31.189Z,41.76
2018-09-09T15:49:59.587Z,42.16
2018-09-09T15:52:27.965Z,42.52
2018-09-09T15:54:56.690Z,43.05
2018-09-09T15:57:25.112Z,43.33
2018-09-09T15:59:53.495Z,43.13
2018-09-09T16:02:21.892Z,43.11
2018-09-09T16:04:50.263Z,42.21
2018-09-09T16:07:18.649Z,43.13
2018-09-09T16:09:47.225Z,42.87
2018-09-09T16:12:15.618Z,42.59
2018-09-09T16:14:44.071Z,43.02
2018-09-09T16:17:12.502Z,42.59
2018-09-09T16:19:40.857Z,42.45
2018-09-09T16:22:09.326Z,42.13
2018-09-09T16:24:37.861Z,42.37
2018-09-09T16:27:07.052Z,42.40
2018-09-09T16:29:35.469Z,42.19
2018-09-09T16:32:04.079Z,42.09
2018-09-09T16:34:32.436Z,42.75
2018-09-09T16:37:00.875Z,42.58
2018-09-09T16:39:29.381Z,42.82
2018-09-09T16:41:57.811Z,43.03
2018-09-09T16:44:26.225Z,43.47
2018-09-09T16:46:54.687Z,43.19
2018-09-09T16:49:23.222Z,43.68
2018-09-09T16:51:51.891Z,43.58
2018-09-09T16:54:20.271Z,43.92
2018-09-09T16:56:48.663Z,45.02
2018-09-09T16:59:17.034Z,45.34
2018-09-09T17:01:45.481Z,45.98
2018-09-09T17:04:13.827Z,45.90
2018-09-09T17:06:42.181Z,46.78
2018-09-09T17:09:11.571Z,47.41
2018-09-09T17:11:40.747Z,47.52
2018-09-09T17:14:09.366Z,47.95
2018-09-09T17:16:38.035Z,47.90
2018-09-09T17:19:06.424Z,48.32
2018-09-09T17:21:34.835Z,48.83
2018-09-09T17:24:03.227Z,49.33
2018-09-09T17:26:31.785Z,49.79
2018-09-09T17:29:00.171Z,49.68
2018-09-09T17:31:28.561Z,50.20
2018-09-09T17:33:56.925Z,51.23
2018-09-09T17:36:25.381Z,52.82
2018-09-09T17:38:53.799Z,53.62
2018-09-09T17:41:22.137Z,53.72
2018-09-09T17:43:50.523Z,53.48
2018-09-09T17:46:18.920Z,53.63
2018-09-09T17:48:47.371Z,53.87
2018-09-09T17:51:15.765Z,54.15
2018-09-09T17:53:44.192Z,53.98
2018-09-09T17:56:12.531Z,53.76
2018-09-09T17:58:40.900Z,53.69
2018-09-09T18:01:09.510Z,54.14
2018-09-09T18:03:39.092Z,53.77
2018-09-09T18:06:07.455Z,54.39
2018-09-09T18:08:35.823Z,54.01
2018-09-09T18:11:04.256Z,54.74
2018-09-09T18:13:32.580Z,54.59
2018-09-09T18:16:00.973Z,54.75
2018-09-09T18:18:29.327Z,55.36
2018-09-09T18:20:57.747Z,55.59
2018-09-09T18:23:26.081Z,55.64
2018-09-09T18:25:54.427Z,55.75
2018-09-09T18:28:22.920Z,56.04
2018-09-09T18:30:51.751Z,55.83
2018-09-09T18:33:20.144Z,55.47
2018-09-09T18:35:48.500Z,55.52
2018-09-09T18:38:17.060Z,55.72
2018-09-09T18:40:45.480Z,55.81
2018-09-09T18:43:13.864Z,56.19
2018-09-09T18:45:42.276Z,56.19
2018-09-09T18:48:10.736Z,56.94
2018-09-09T18:50:39.207Z,56.97
2018-09-09T18:53:07.724Z,57.00
2018-09-09T18:55:36.224Z,57.04
2018-09-09T18:58:04.644Z,57.44
2018-09-09T19:00:33.156Z,57.69
2018-09-09T19:03:01.488Z,57.86
2018-09-09T19:05:29.930Z,58.33
2018-09-09T19:07:58.642Z,57.85
2018-09-09T19:10:27.037Z,57.68
2018-09-09T19:12:55.626Z,57.98
2018-09-09T19:15:24.201Z,57.75
2018-09-09T19:17:52.750Z,56.79
2018-09-09T19:20:21.117Z,56.83
2018-09-09T19:22:49.582Z,57.32
2018-09-09T19:25:18.023Z,57.29
2018-09-09T19:27:46.400Z,57.21
2018-09-09T19:30:14.968Z,57.71
2018-09-09T19:32:43.348Z,56.96
2018-09-09T19:35:11.741Z,56.64
2018-09-09T19:37:40.317Z,57.05
2018-09-09T19:40:08.696Z,57.41
2018-09-09T19:42:38.028Z,57.77
2018-09-09T19:45:07.352Z,58.21
2018-09-09T19:47:35.804Z,58.36
2018-09-09T19:50:05.152Z,58.37
2018-09-09T19:52:33.956Z,59.11
2018-09-09T19:55:02.382Z,59.17
2018-09-09T19:57:31.365Z,59.57
2018-09-09T19:59:59.815Z,59.76
2018-09-09T20:02:28.220Z,60.31
2018-09-09T20:04:56.570Z,60.77
2018-09-09T20:07:25.075Z,61.11
2018-09-09T20:09:53.549Z,61.05
2018-09-09T20:12:22.048Z,60.84
2018-09-09T20:14:50.450Z,60.93
2018-09-09T20:17:18.873Z,61.15
2018-09-09T20:19:47.257Z,61.31
2018-09-09T20:22:15.828Z,61.20
2018-09-09T20:24:44.197Z,61.15
2018-09-09T20:27:12.604Z,61.54
2018-09-09T20:29:41.491Z,60.85
2018-09-09T20:32:09.822Z,61.09
2018-09-09T20:34:38.181Z,61.63
2018-09-09T20:37:06.720Z,61.09
2018-09-09T20:39:35.346Z,61.02
2018-09-09T20:42:03.697Z,61.53
2018-09-09T20:44:32.099Z,61.11
2018-09-09T20:47:00.535Z,61.13
2018-09-09T20:49:28.961Z,60.87
2018-09-09T20:51:57.315Z,61.19
2018-09-09T20:54:25.728Z,60.93
2018-09-09T20:56:54.216Z,60.98
2018-09-09T20:59:22.666Z,61.32
2018-09-09T21:01:51.224Z,61.50
2018-09-09T21:04:19.820Z,61.21
2018-09-09T21:06:48.226Z,61.18
2018-09-09T21:09:16.676Z,61.69
2018-09-09T21:11:45.071Z,61.73
2018-09-09T21:14:13.471Z,61.80
2018-09-09T21:16:41.925Z,62.03
2018-09-09T21:19:10.235Z,62.02
2018-09-09T21:21:38.707Z,62.02
2018-09-09T21:24:07.260Z,61.58
2018-09-09T21:26:35.632Z,61.83
2018-09-09T21:29:04.065Z,61.72
2018-09-09T21:31:32.480Z,61.57
2018-09-09T21:34:00.859Z,61.93
2018-09-09T21:36:29.443Z,61.98
2018-09-09T21:38:57.776Z,62.05
2018-09-09T21:41:26.119Z,62.44
2018-09-09T21:43:54.531Z,62.27
2018-09-09T21:46:22.867Z,62.11
2018-09-09T21:48:51.304Z,62.57
2018-09-09T21:51:19.785Z,62.71
2018-09-09T21:53:48.116Z,63.10
2018-09-09T21:56:16.476Z,63.09
2018-09-09T21:58:44.844Z,63.49
2018-09-09T22:01:18.519Z,63.11
2018-09-09T22:03:46.907Z,63.32
2018-09-09T22:06:15.276Z,63.68
2018-09-09T22:08:43.696Z,63.56
2018-09-09T22:11:12.100Z,63.57
2018-09-09T22:13:40.603Z,63.86
2018-09-09T22:16:09.127Z,63.60
2018-09-09T22:18:37.545Z,63.72
2018-09-09T22:21:05.883Z,64.26
2018-09-09T22:23:34.284Z,64.09
2018-09-09T22:26:02.670Z,64.00
2018-09-09T22:28:31.062Z,63.94
2018-09-09T22:30:59.517Z,64.33
2018-09-09T22:33:28.072Z,64.11
2018-09-09T22:35:56.482Z,63.85
2018-09-09T22:38:24.836Z,64.31
2018-09-09T22:40:53.342Z,64.43
2018-09-09T22:43:22.279Z,64.48
2018-09-09T22:45:51.817Z,65.07
2018-09-09T22:48:20.914Z,64.96
2018-09-09T22:50:49.284Z,64.88
2018-09-09T22:53:17.620Z,64.68
2018-09-09T22:55:46.059Z,64.92
2018-09-09T22:58:14.451Z,64.62
2018-09-09T23:00:42.976Z,64.63
2018-09-09T23:03:11.346Z,64.40
2018-09-09T23:05:39.746Z,64.33
2018-09-09T23:08:08.158Z,64.38
2018-09-09T23:10:36.692Z,64.43
2018-09-09T23:13:05.353Z,64.57
2018-09-09T23:15:33.686Z,64.86
2018-09-09T23:18:02.072Z,64.77
2018-09-09T23:20:30.454Z,65.12
2018-09-09T23:22:58.834Z,64.99
2018-09-09T23:25:27.201Z,64.76
2018-09-09T23:27:55.537Z,64.52
2018-09-09T23:30:23.887Z,64.74
2018-09-09T23:32:52.294Z,65.18
2018-09-09T23:35:20.615Z,65.33
2018-09-09T23:37:48.962Z,65.01
2018-09-09T23:40:17.389Z,64.84
2018-09-09T23:42:45.744Z,64.67
2018-09-09T23:45:14.131Z,64.55
2018-09-09T23:47:42.516Z,64.78
2018-09-09T23:50:10.894Z,64.86
2018-09-09T23:52:39.259Z,64.71
2018-09-09T23:55:08.155Z,64.34
2018-09-09T23:57:36.544Z,64.29
